Terminal Aerodrome Forecast
Issued by NWS

Home | Current Version | Previous Version | Text Only | Print | Product List | Glossary On
Versions: 1 2 3 4 5 6 7 8 9 10 11 12 13
000
FTUS46 KMFR 171100
TAFLMT
TAF
KLMT 171136Z 1712/1812 28004KT P6SM FEW040 BKN120
     FM172000 28015G25KT P6SM -SHRA OVC040
     FM180400 30008KT P6SM VCSH BKN040 OVC070
     FM180800 31002KT P6SM SCT040=

USA.gov is the U.S. government's official web portal to all federal, state and local government web resources and services.